Stephens, Arkansas
Current Conditions -  °F | °C
As of 10:53 AM on Wednesday 26 Nov 2014 (Local Time) from KELD Reporting Station
Clear Clear  
Wind Chill: 59°   Ceiling: Unl
Heat Index: 59°   Visibility: 10mi
Dew Point: 33°   Wind: 21mph
Humidity: 38%   Direction: 220°SW
Pressure: 30.07"   Gusts: 28mph
Location:  33.41°N, 93.07°W
Report Text: KELD 261653Z AUTO 22018G24KT 10SM CLR 15/01 A3007 RMK AO2 SLP181 T01500006
Loading
Personal Weather Stations






























Interactive Weather Map New forecast layout! Learn more

10-Day Weather Forecast

Advertisements
Track Severe Weather on mobile